createdAt,value
2022-12-22T00:03:59.066Z,100756.72
2022-12-22T00:09:05.764Z,100752.44
2022-12-22T00:19:36.272Z,100737.72
2022-12-22T00:30:01.296Z,100719.69
2022-12-22T00:35:04.102Z,100731.59
2022-12-22T00:40:19.942Z,100722.38
2022-12-22T00:50:47.919Z,100700.56
2022-12-22T00:55:52.164Z,100704.53
2022-12-22T01:00:55.171Z,100705.75
2022-12-22T01:06:04.311Z,100725.53
2022-12-22T01:11:07.503Z,100721.81
2022-12-22T01:16:12.632Z,100719.91
2022-12-22T01:21:21.404Z,100710.63
2022-12-22T01:26:24.547Z,100698.59
2022-12-22T01:31:30.693Z,100703.00
2022-12-22T01:36:38.911Z,100689.09
2022-12-22T01:47:29.539Z,100693.41
2022-12-22T01:58:00.638Z,100686.59
2022-12-22T02:03:04.195Z,100678.22
2022-12-22T02:08:20.075Z,100674.50
2022-12-22T02:19:04.059Z,100651.56
2022-12-22T02:24:20.534Z,100640.44
2022-12-22T02:29:33.124Z,100641.09
2022-12-22T02:34:36.783Z,100627.41
2022-12-22T02:39:54.779Z,100623.69
2022-12-22T02:45:16.521Z,100624.13
2022-12-22T02:50:27.921Z,100628.53
2022-12-22T02:55:32.358Z,100621.22
2022-12-22T03:00:41.478Z,100616.66
2022-12-22T03:05:45.383Z,100610.25
2022-12-22T03:10:48.129Z,100602.13
2022-12-22T03:21:19.209Z,100603.34
2022-12-22T03:31:42.319Z,100600.41
2022-12-22T03:36:45.229Z,100597.47
2022-12-22T03:41:48.524Z,100597.47
2022-12-22T03:46:56.986Z,100588.12
2022-12-22T03:52:00.858Z,100583.56
2022-12-22T03:57:04.519Z,100565.47
2022-12-22T04:02:13.503Z,100559.41
2022-12-22T04:07:16.333Z,100552.50
2022-12-22T04:12:20.070Z,100559.16
2022-12-22T04:17:28.289Z,100546.81
2022-12-22T04:22:31.256Z,100544.31
2022-12-22T04:27:34.663Z,100530.97
2022-12-22T04:37:58.482Z,100525.19
2022-12-22T04:43:03.169Z,100528.66
2022-12-22T04:48:07.583Z,100519.06
2022-12-22T04:53:16.905Z,100517.22
2022-12-22T04:58:20.700Z,100517.00
2022-12-22T05:08:44.567Z,100507.78
2022-12-22T05:19:08.064Z,100485.94
2022-12-22T05:24:10.885Z,100473.19
2022-12-22T05:34:35.140Z,100470.81
2022-12-22T05:39:37.896Z,100452.62
2022-12-22T05:44:43.243Z,100442.47
2022-12-22T05:49:51.470Z,100442.47
2022-12-22T05:54:54.647Z,100432.94
2022-12-22T05:59:58.086Z,100423.78
2022-12-22T06:05:08.150Z,100415.31
2022-12-22T06:10:13.032Z,100414.06
2022-12-22T06:15:17.749Z,100405.78
2022-12-22T06:20:27.726Z,100406.22
2022-12-22T06:30:53.004Z,100389.47
2022-12-22T06:41:22.075Z,100378.88
2022-12-22T06:46:26.104Z,100374.72
2022-12-22T06:56:53.547Z,100386.47
2022-12-22T07:01:56.587Z,100386.03
2022-12-22T07:06:59.365Z,100385.00
2022-12-22T07:12:08.893Z,100387.50
2022-12-22T07:17:11.849Z,100385.25
2022-12-22T07:32:54.000Z,100376.37
2022-12-22T07:43:20.381Z,100369.53
2022-12-22T07:48:24.335Z,100372.81
2022-12-22T07:58:46.465Z,100371.66
2022-12-22T08:03:51.441Z,100374.09
2022-12-22T08:08:54.312Z,100366.81
2022-12-22T08:14:03.627Z,100357.47
2022-12-22T08:19:06.586Z,100360.59
2022-12-22T08:29:35.652Z,100346.50
2022-12-22T08:34:38.674Z,100343.38
2022-12-22T08:39:45.199Z,100335.06
2022-12-22T08:45:01.491Z,100335.69
2022-12-22T08:50:05.906Z,100321.78
2022-12-22T09:05:50.997Z,100327.47
2022-12-22T09:10:53.784Z,100329.75
2022-12-22T09:15:57.605Z,100331.22
2022-12-22T09:21:06.945Z,100331.66
2022-12-22T09:26:11.010Z,100332.06
2022-12-22T09:31:14.515Z,100324.56
2022-12-22T09:36:26.269Z,100317.09
2022-12-22T09:41:34.801Z,100317.53
2022-12-22T09:46:39.573Z,100310.00
2022-12-22T09:51:52.036Z,100308.78
2022-12-22T09:56:54.952Z,100291.47
2022-12-22T10:02:13.321Z,100291.09
2022-12-22T10:07:31.724Z,100292.34
2022-12-22T10:12:34.520Z,100283.81
2022-12-22T10:17:37.236Z,100289.00
2022-12-22T10:22:50.044Z,100279.84
2022-12-22T10:27:53.127Z,100275.69
2022-12-22T10:33:05.536Z,100270.28
2022-12-22T10:38:24.751Z,100273.59
2022-12-22T10:43:37.760Z,100267.59
2022-12-22T10:48:42.271Z,100252.00
2022-12-22T10:53:54.265Z,100247.19
2022-12-22T10:59:07.290Z,100249.47
2022-12-22T11:04:18.060Z,100245.53
2022-12-22T11:09:34.700Z,100243.44
2022-12-22T11:14:51.944Z,100241.34
2022-12-22T11:20:04.920Z,100228.44
2022-12-22T11:36:41.069Z,100217.56
2022-12-22T11:41:53.761Z,100206.72
2022-12-22T11:47:07.067Z,100206.72
2022-12-22T11:52:33.638Z,100214.44
2022-12-22T11:57:45.808Z,100207.56
2022-12-22T12:13:58.258Z,100194.22
2022-12-22T12:19:28.490Z,100191.28
2022-12-22T12:24:55.943Z,100188.19
2022-12-22T12:30:37.473Z,100179.81
2022-12-22T12:35:47.362Z,100172.31
2022-12-22T12:40:57.503Z,100174.78
2022-12-22T12:46:46.711Z,100164.78
2022-12-22T12:51:53.393Z,100169.78
2022-12-22T12:57:00.659Z,100177.09
2022-12-22T13:02:43.379Z,100180.63
2022-12-22T13:08:19.192Z,100180.00
2022-12-22T13:13:52.356Z,100184.41
2022-12-22T13:29:45.095Z,100199.22
2022-12-22T13:40:23.281Z,100208.59
2022-12-22T13:45:43.987Z,100214.03
2022-12-22T13:50:50.907Z,100217.38
2022-12-22T13:55:54.676Z,100216.13
2022-12-22T14:01:17.660Z,100224.25
2022-12-22T14:17:22.385Z,100236.34
2022-12-22T14:22:34.889Z,100257.44
2022-12-22T14:27:41.063Z,100257.63
2022-12-22T14:32:55.194Z,100256.16
2022-12-22T14:38:18.919Z,100260.75
2022-12-22T14:54:23.528Z,100276.84
2022-12-22T14:59:28.854Z,100279.94
2022-12-22T15:04:32.546Z,100294.56
2022-12-22T15:10:13.946Z,100305.59
2022-12-22T15:15:03.895Z,100304.97
2022-12-22T15:20:08.123Z,100297.03
2022-12-22T15:36:01.918Z,100306.62
2022-12-22T15:41:04.716Z,100314.34
2022-12-22T15:46:08.021Z,100309.53
2022-12-22T15:51:24.070Z,100320.78
2022-12-22T15:56:31.297Z,100317.47
2022-12-22T16:01:35.505Z,100309.94
2022-12-22T16:06:43.958Z,100318.25
2022-12-22T16:11:46.818Z,100333.03
2022-12-22T16:16:50.109Z,100342.41
2022-12-22T16:27:21.258Z,100328.87
2022-12-22T18:00:06.031Z,100357.59
2022-12-22T18:21:15.871Z,100378.19
2022-12-22T18:51:39.849Z,100363.31
2022-12-22T19:02:25.066Z,100366.37
2022-12-22T19:45:37.714Z,100371.72
